createdAt,value
2022-12-23T00:00:36.197Z,0.00
2022-12-23T00:01:36.560Z,0.00
2022-12-23T00:02:36.406Z,0.00
2022-12-23T00:03:36.294Z,0.00
2022-12-23T00:04:36.193Z,0.00
2022-12-23T00:05:38.167Z,0.00
2022-12-23T00:06:36.130Z,0.00
2022-12-23T00:07:36.170Z,0.00
2022-12-23T00:08:36.132Z,0.00
2022-12-23T00:09:36.186Z,0.00
2022-12-23T00:10:36.130Z,0.00
2022-12-23T00:11:36.119Z,0.00
2022-12-23T00:12:36.101Z,0.00
2022-12-23T00:13:36.108Z,0.00
2022-12-23T00:14:36.152Z,0.00
2022-12-23T00:15:36.069Z,0.00
2022-12-23T00:16:36.203Z,0.00
2022-12-23T00:17:36.064Z,0.00
2022-12-23T00:18:36.040Z,0.00
2022-12-23T00:19:36.053Z,0.00
2022-12-23T00:20:36.091Z,0.00
2022-12-23T00:21:36.030Z,0.00
2022-12-23T00:22:35.964Z,0.00
2022-12-23T00:23:36.025Z,0.00
2022-12-23T00:24:35.973Z,0.00
2022-12-23T00:25:35.983Z,0.00
2022-12-23T00:26:35.966Z,0.00
2022-12-23T00:27:37.812Z,0.00
2022-12-23T00:28:35.901Z,0.00
2022-12-23T00:29:35.904Z,0.00
2022-12-23T00:30:35.961Z,0.00
2022-12-23T00:31:35.943Z,0.00
2022-12-23T00:32:35.861Z,0.00
2022-12-23T00:33:35.942Z,0.00
2022-12-23T00:34:35.835Z,0.00
2022-12-23T00:35:36.397Z,0.00
2022-12-23T00:36:35.924Z,0.00
2022-12-23T00:37:35.797Z,0.00
2022-12-23T00:38:35.815Z,0.00
2022-12-23T00:39:35.838Z,0.00
2022-12-23T00:40:35.836Z,0.00
2022-12-23T00:41:35.798Z,0.00
2022-12-23T00:42:35.739Z,0.00
2022-12-23T00:43:35.745Z,0.00
2022-12-23T00:44:35.792Z,0.00
2022-12-23T00:45:35.785Z,0.00
2022-12-23T00:46:35.822Z,0.00
2022-12-23T00:47:35.709Z,0.00
2022-12-23T00:48:35.714Z,0.00
2022-12-23T00:49:35.675Z,0.00
2022-12-23T00:50:35.680Z,0.00
2022-12-23T00:51:35.693Z,0.00
2022-12-23T00:52:35.716Z,0.00
2022-12-23T00:53:35.659Z,0.00
2022-12-23T00:54:35.607Z,0.00
2022-12-23T00:55:35.610Z,0.00
2022-12-23T00:56:35.625Z,0.00
2022-12-23T00:57:35.625Z,0.00
2022-12-23T00:58:35.628Z,0.00
2022-12-23T00:59:35.587Z,0.00
2022-12-23T01:00:35.541Z,0.00
2022-12-23T01:01:35.637Z,0.00
2022-12-23T01:02:35.728Z,0.00
2022-12-23T01:03:35.699Z,0.00
2022-12-23T01:04:35.573Z,0.00
2022-12-23T01:05:35.536Z,0.00
2022-12-23T01:06:35.532Z,0.00
2022-12-23T01:07:35.528Z,0.00
2022-12-23T01:08:35.555Z,0.00
2022-12-23T01:09:35.546Z,0.00
2022-12-23T01:10:35.560Z,0.00
2022-12-23T01:11:35.511Z,0.00
2022-12-23T01:12:35.422Z,0.00
2022-12-23T01:13:35.516Z,0.00
2022-12-23T01:14:35.496Z,0.00
2022-12-23T01:15:36.244Z,0.00
2022-12-23T01:16:35.514Z,0.00
2022-12-23T01:17:35.403Z,0.00
2022-12-23T01:18:35.433Z,0.00
2022-12-23T01:19:35.406Z,0.00
2022-12-23T01:20:35.416Z,0.00
2022-12-23T01:21:35.433Z,0.00
2022-12-23T01:22:35.436Z,0.00
2022-12-23T01:23:35.349Z,0.00
2022-12-23T01:24:35.351Z,0.00
2022-12-23T01:25:35.358Z,0.00
2022-12-23T01:26:35.465Z,0.00
2022-12-23T01:27:35.580Z,0.00
2022-12-23T01:28:35.301Z,0.00
2022-12-23T01:29:35.219Z,0.00
2022-12-23T01:30:35.236Z,0.00
2022-12-23T01:31:35.270Z,0.00
2022-12-23T01:32:35.221Z,0.00
2022-12-23T01:33:35.235Z,0.00
2022-12-23T01:34:37.462Z,0.00
2022-12-23T01:35:35.199Z,0.00
2022-12-23T01:36:35.419Z,0.00
2022-12-23T01:37:35.158Z,0.00
2022-12-23T01:38:35.256Z,0.00
2022-12-23T01:39:35.170Z,0.00
2022-12-23T01:40:35.144Z,0.00
2022-12-23T01:41:35.133Z,0.00
2022-12-23T01:42:35.148Z,0.00
2022-12-23T01:43:35.164Z,0.00
2022-12-23T01:44:35.103Z,0.00
2022-12-23T01:45:35.155Z,0.00
2022-12-23T01:46:35.076Z,0.00
2022-12-23T01:47:35.079Z,0.00
2022-12-23T01:48:35.027Z,0.00
2022-12-23T01:49:35.090Z,0.00
2022-12-23T01:50:35.095Z,0.00
2022-12-23T01:51:35.650Z,0.00
2022-12-23T01:52:35.014Z,0.00
2022-12-23T01:53:35.038Z,0.00
2022-12-23T01:54:34.959Z,0.00
2022-12-23T01:55:35.069Z,0.00
2022-12-23T01:56:34.974Z,0.00
2022-12-23T01:57:34.976Z,0.00
2022-12-23T01:58:34.965Z,0.00
2022-12-23T01:59:35.048Z,0.00
2022-12-23T02:00:34.901Z,0.00
2022-12-23T02:01:35.063Z,0.00
2022-12-23T02:02:34.999Z,0.00
2022-12-23T02:03:35.032Z,0.00
2022-12-23T02:04:34.818Z,0.00
2022-12-23T02:05:34.888Z,0.00
2022-12-23T02:06:34.834Z,0.00
2022-12-23T02:07:34.848Z,0.00
2022-12-23T02:08:34.844Z,0.00
2022-12-23T02:09:34.853Z,0.00
2022-12-23T02:10:34.833Z,0.00
2022-12-23T02:11:34.795Z,0.00
2022-12-23T02:12:35.383Z,0.00
2022-12-23T02:13:34.783Z,0.00
2022-12-23T02:14:34.808Z,0.00
2022-12-23T02:15:34.745Z,0.00
2022-12-23T02:16:34.786Z,0.00
2022-12-23T02:17:34.712Z,0.00
2022-12-23T02:18:34.712Z,0.00
2022-12-23T02:19:34.794Z,0.00
2022-12-23T02:20:34.792Z,0.00
2022-12-23T02:21:34.648Z,0.00
2022-12-23T02:22:34.700Z,0.00
2022-12-23T02:23:34.669Z,0.00
2022-12-23T02:24:35.186Z,0.00
2022-12-23T02:25:34.683Z,0.00
2022-12-23T02:26:34.693Z,0.00
2022-12-23T02:27:34.844Z,0.00
2022-12-23T02:28:34.653Z,0.00
2022-12-23T02:29:34.606Z,0.00
2022-12-23T02:30:34.686Z,0.00
2022-12-23T02:31:34.626Z,0.00
2022-12-23T02:32:34.628Z,0.00
2022-12-23T02:33:34.528Z,0.00
2022-12-23T02:34:34.539Z,0.00
2022-12-23T02:35:34.747Z,0.00
2022-12-23T02:36:34.587Z,0.00
2022-12-23T02:37:34.502Z,0.00
2022-12-23T02:38:34.704Z,0.00
2022-12-23T02:39:34.527Z,0.00
2022-12-23T02:40:34.478Z,0.00
2022-12-23T02:41:34.479Z,0.00
2022-12-23T02:42:34.534Z,0.00
2022-12-23T02:43:34.488Z,0.00
2022-12-23T02:44:34.809Z,0.00
2022-12-23T02:45:34.479Z,0.00
2022-12-23T02:46:34.473Z,0.00
2022-12-23T02:47:34.476Z,0.00
2022-12-23T02:48:34.429Z,0.00
2022-12-23T02:49:34.371Z,0.00
2022-12-23T02:50:34.789Z,0.00
2022-12-23T02:51:34.346Z,0.00
2022-12-23T02:52:34.355Z,0.00
2022-12-23T02:53:34.398Z,0.00
2022-12-23T02:54:34.467Z,0.00
2022-12-23T02:55:34.371Z,0.00
2022-12-23T02:56:34.313Z,0.00
2022-12-23T02:57:34.274Z,0.00
2022-12-23T02:58:34.286Z,0.00
2022-12-23T02:59:34.359Z,0.00
2022-12-23T03:00:34.323Z,0.00
2022-12-23T03:01:34.395Z,0.00
2022-12-23T03:02:35.210Z,0.00
2022-12-23T03:03:34.263Z,0.00
2022-12-23T03:04:34.222Z,0.00
2022-12-23T03:05:34.232Z,0.00
2022-12-23T03:06:34.274Z,0.00
2022-12-23T03:07:34.249Z,0.00
2022-12-23T03:08:34.249Z,0.00
2022-12-23T03:09:34.198Z,0.00
2022-12-23T03:10:34.218Z,0.00
2022-12-23T03:11:34.164Z,0.00
2022-12-23T03:12:34.167Z,0.00
2022-12-23T03:13:34.222Z,0.00
2022-12-23T03:14:34.223Z,0.00
2022-12-23T03:15:34.191Z,0.00
2022-12-23T03:16:34.155Z,0.00
2022-12-23T03:17:34.160Z,0.00
2022-12-23T03:18:34.154Z,0.00
2022-12-23T03:19:34.773Z,0.00
2022-12-23T03:20:34.171Z,0.00
2022-12-23T03:21:34.028Z,0.00
2022-12-23T03:22:34.077Z,0.00
2022-12-23T03:23:34.040Z,0.00
2022-12-23T03:24:34.039Z,0.00
2022-12-23T03:25:34.104Z,0.00
2022-12-23T03:26:34.061Z,0.00
2022-12-23T03:27:33.972Z,0.00
2022-12-23T03:28:33.965Z,0.00
2022-12-23T03:29:34.000Z,0.00
2022-12-23T03:30:34.029Z,0.00
2022-12-23T03:31:34.138Z,0.00
2022-12-23T03:32:33.891Z,0.00
2022-12-23T03:33:33.952Z,0.00
2022-12-23T03:34:33.977Z,0.00
2022-12-23T03:35:34.495Z,0.00
2022-12-23T03:36:33.869Z,0.00
2022-12-23T03:37:34.339Z,0.00
2022-12-23T03:38:33.855Z,0.00
2022-12-23T03:39:33.873Z,0.00
2022-12-23T03:40:33.806Z,0.00
2022-12-23T03:41:33.876Z,0.00
2022-12-23T03:42:33.896Z,0.00
2022-12-23T03:43:34.275Z,0.00
2022-12-23T03:44:33.832Z,0.00
2022-12-23T03:45:38.624Z,0.00
2022-12-23T03:46:33.940Z,0.00
2022-12-23T03:47:33.745Z,0.00
2022-12-23T03:48:33.752Z,0.00
2022-12-23T03:49:33.823Z,0.00
2022-12-23T03:50:33.704Z,0.00
2022-12-23T03:51:34.590Z,0.00
2022-12-23T03:52:33.687Z,0.00
2022-12-23T03:53:33.750Z,0.00
2022-12-23T03:54:33.694Z,0.00
2022-12-23T03:55:33.706Z,0.00
2022-12-23T03:56:33.698Z,0.00
2022-12-23T03:57:33.735Z,0.00
2022-12-23T03:58:33.679Z,0.00
2022-12-23T03:59:33.632Z,0.00
2022-12-23T04:00:33.738Z,0.00
2022-12-23T04:01:33.808Z,0.00
2022-12-23T04:02:33.740Z,0.00
2022-12-23T04:03:33.584Z,0.00
2022-12-23T04:04:33.559Z,0.00
2022-12-23T04:05:33.771Z,0.00
2022-12-23T04:06:33.576Z,0.00
2022-12-23T04:07:33.694Z,0.00
2022-12-23T04:08:33.588Z,0.00
2022-12-23T04:09:33.494Z,0.00
2022-12-23T04:10:33.505Z,0.00
2022-12-23T04:11:33.512Z,0.00
2022-12-23T04:12:34.004Z,0.00
2022-12-23T04:13:33.487Z,0.00
2022-12-23T04:14:34.465Z,0.00
2022-12-23T04:15:33.482Z,0.00
2022-12-23T04:16:33.536Z,0.00
2022-12-23T04:17:33.515Z,0.00
2022-12-23T04:18:33.482Z,0.00
2022-12-23T04:19:33.531Z,0.00
2022-12-23T04:20:33.522Z,0.00
2022-12-23T04:21:33.437Z,0.00
2022-12-23T04:22:33.435Z,0.00
2022-12-23T04:23:33.417Z,0.00
2022-12-23T04:24:33.401Z,0.00
2022-12-23T04:25:33.502Z,0.00
2022-12-23T04:26:33.372Z,0.00
2022-12-23T04:27:33.376Z,0.00
2022-12-23T04:28:33.343Z,0.00
2022-12-23T04:29:33.348Z,0.00
2022-12-23T04:30:34.553Z,0.00
2022-12-23T04:31:33.372Z,0.00
2022-12-23T04:32:33.405Z,0.00
2022-12-23T04:33:33.246Z,0.00
2022-12-23T04:34:33.279Z,1.00
2022-12-23T04:35:33.259Z,1.00
2022-12-23T04:36:33.235Z,1.00
2022-12-23T04:37:33.227Z,1.00
2022-12-23T04:38:33.195Z,1.00
2022-12-23T04:39:33.149Z,1.00
2022-12-23T04:40:33.188Z,1.00
2022-12-23T04:41:33.154Z,1.00
2022-12-23T04:42:33.151Z,1.00
2022-12-23T04:43:33.164Z,1.00
2022-12-23T04:44:33.345Z,1.00
2022-12-23T04:45:33.089Z,1.00
2022-12-23T04:46:33.122Z,1.00
2022-12-23T04:47:33.134Z,1.00
2022-12-23T04:48:33.090Z,1.00
2022-12-23T04:49:33.070Z,1.00
2022-12-23T04:50:33.059Z,1.00
2022-12-23T04:51:33.119Z,1.00
2022-12-23T04:52:32.985Z,1.00
2022-12-23T04:53:33.073Z,1.00
2022-12-23T04:54:32.999Z,1.00
2022-12-23T04:55:33.648Z,1.00
2022-12-23T04:56:33.042Z,1.00
2022-12-23T04:57:33.050Z,1.00
2022-12-23T04:58:32.968Z,1.00
2022-12-23T04:59:32.968Z,1.00
2022-12-23T05:00:39.112Z,1.00
2022-12-23T05:01:33.091Z,1.00
2022-12-23T05:02:33.092Z,1.00
2022-12-23T05:03:33.127Z,1.00
2022-12-23T05:04:32.930Z,1.00
2022-12-23T05:05:32.915Z,1.00
2022-12-23T05:06:32.918Z,1.00
2022-12-23T05:07:33.014Z,1.00
2022-12-23T05:08:32.912Z,1.00
2022-12-23T05:09:33.097Z,1.00
2022-12-23T05:10:32.831Z,1.00
2022-12-23T05:11:37.102Z,1.00
2022-12-23T05:12:32.853Z,1.00
2022-12-23T05:13:32.781Z,1.00
2022-12-23T05:14:32.859Z,1.00
2022-12-23T05:15:32.862Z,1.00
2022-12-23T05:16:32.785Z,1.00
2022-12-23T05:17:32.766Z,1.00
2022-12-23T05:18:32.773Z,1.00
2022-12-23T05:19:32.776Z,1.00
2022-12-23T05:20:32.804Z,1.00
2022-12-23T05:21:32.795Z,1.00
2022-12-23T05:22:32.728Z,1.00
2022-12-23T05:23:32.838Z,1.00
2022-12-23T05:24:32.655Z,1.00
2022-12-23T05:25:32.723Z,1.00
2022-12-23T05:26:32.837Z,1.00
2022-12-23T05:27:32.639Z,1.00
2022-12-23T05:28:32.577Z,1.00
2022-12-23T05:29:32.948Z,1.00
2022-12-23T05:30:32.651Z,1.00
2022-12-23T05:31:32.706Z,1.00
2022-12-23T05:32:32.562Z,1.00
2022-12-23T05:33:32.640Z,1.00
2022-12-23T05:34:32.512Z,1.00
2022-12-23T05:35:32.524Z,1.00
2022-12-23T05:36:32.607Z,1.00
2022-12-23T05:37:32.534Z,1.00
2022-12-23T05:38:32.546Z,1.00
2022-12-23T05:39:32.563Z,1.00
2022-12-23T05:40:32.806Z,1.00
2022-12-23T05:41:32.525Z,1.00
2022-12-23T05:42:32.475Z,1.00
2022-12-23T05:43:32.471Z,1.00
2022-12-23T05:44:32.437Z,1.00
2022-12-23T05:45:32.531Z,1.00
2022-12-23T05:46:32.543Z,1.00
2022-12-23T05:47:32.407Z,1.00
2022-12-23T05:48:32.414Z,1.00
2022-12-23T05:49:32.420Z,1.00
2022-12-23T05:50:32.374Z,1.00
2022-12-23T05:51:32.326Z,1.00
2022-12-23T05:52:32.404Z,1.00
2022-12-23T05:53:32.335Z,1.00
2022-12-23T05:54:32.346Z,1.00
2022-12-23T05:55:32.851Z,1.00
2022-12-23T05:56:32.259Z,1.00
2022-12-23T05:57:32.325Z,1.00
2022-12-23T05:58:32.270Z,1.00
2022-12-23T05:59:32.281Z,1.00
2022-12-23T06:00:32.280Z,1.00
2022-12-23T06:01:32.366Z,1.00
2022-12-23T06:02:32.570Z,1.00
2022-12-23T06:03:32.463Z,1.00
2022-12-23T06:04:32.204Z,1.00
2022-12-23T06:05:32.306Z,1.00
2022-12-23T06:06:32.228Z,1.00
2022-12-23T06:07:32.290Z,1.00
2022-12-23T06:08:32.309Z,1.00
2022-12-23T06:09:32.435Z,1.00
2022-12-23T06:10:32.135Z,1.00
2022-12-23T06:11:32.155Z,1.00
2022-12-23T06:12:32.269Z,1.00
2022-12-23T06:13:32.152Z,1.00
2022-12-23T06:14:32.075Z,1.00
2022-12-23T06:15:32.239Z,1.00
2022-12-23T06:16:32.169Z,1.00
2022-12-23T06:17:32.153Z,1.00
2022-12-23T06:18:32.157Z,1.00
2022-12-23T06:19:32.069Z,1.00
2022-12-23T06:20:32.172Z,1.00
2022-12-23T06:21:32.026Z,1.00
2022-12-23T06:22:32.106Z,1.00
2022-12-23T06:23:32.098Z,1.00
2022-12-23T06:24:32.038Z,1.00
2022-12-23T06:25:32.101Z,1.00
2022-12-23T06:26:32.036Z,1.00
2022-12-23T06:27:32.041Z,1.00
2022-12-23T06:28:32.018Z,1.00
2022-12-23T06:29:31.969Z,1.00
2022-12-23T06:30:32.070Z,1.00
2022-12-23T06:31:31.978Z,1.00
2022-12-23T06:32:37.893Z,1.00
2022-12-23T06:33:31.978Z,1.00
2022-12-23T06:34:31.976Z,1.00
2022-12-23T06:35:31.964Z,1.00
2022-12-23T06:36:32.016Z,1.00
2022-12-23T06:37:34.777Z,1.00
2022-12-23T06:38:31.905Z,1.00
2022-12-23T06:39:32.011Z,1.00
2022-12-23T06:40:32.451Z,1.00
2022-12-23T06:41:32.760Z,1.00
2022-12-23T06:42:32.439Z,1.00
2022-12-23T06:43:31.933Z,1.00
2022-12-23T06:44:31.805Z,1.00
2022-12-23T06:45:31.875Z,1.00
2022-12-23T06:46:31.901Z,1.00
2022-12-23T06:47:32.341Z,1.00
2022-12-23T06:48:31.782Z,1.00
2022-12-23T06:49:31.762Z,1.00
2022-12-23T06:50:31.797Z,1.00
2022-12-23T06:51:32.371Z,1.00
2022-12-23T06:52:31.788Z,1.00
2022-12-23T06:53:31.776Z,1.00
2022-12-23T06:54:31.710Z,1.00
2022-12-23T06:55:31.647Z,1.00
2022-12-23T06:56:31.655Z,1.00
2022-12-23T06:57:32.440Z,1.00
2022-12-23T06:58:31.673Z,1.00
2022-12-23T06:59:31.741Z,1.00
2022-12-23T07:00:31.637Z,1.00
2022-12-23T07:01:31.789Z,1.00
2022-12-23T07:02:31.773Z,1.00
2022-12-23T07:03:31.948Z,1.00
2022-12-23T07:04:31.682Z,1.00
2022-12-23T07:05:37.060Z,1.00
2022-12-23T07:06:31.575Z,1.00
2022-12-23T07:07:31.575Z,1.00
2022-12-23T07:08:31.591Z,1.00
2022-12-23T07:09:31.543Z,1.00
2022-12-23T07:10:31.597Z,1.00
2022-12-23T07:11:31.621Z,1.00
2022-12-23T07:12:31.534Z,1.00
2022-12-23T07:13:31.461Z,1.00
2022-12-23T07:14:31.670Z,1.00
2022-12-23T07:15:31.527Z,1.00
2022-12-23T07:16:31.567Z,1.00
2022-12-23T07:17:31.490Z,1.00
2022-12-23T07:18:31.452Z,1.00
2022-12-23T07:19:31.440Z,1.00
2022-12-23T07:20:31.451Z,1.00
2022-12-23T07:21:31.516Z,1.00
2022-12-23T07:22:31.462Z,1.00
2022-12-23T07:23:31.328Z,1.00
2022-12-23T07:24:31.333Z,1.00
2022-12-23T07:25:31.342Z,1.00
2022-12-23T07:26:31.341Z,1.00
2022-12-23T07:27:31.349Z,1.00
2022-12-23T07:28:31.400Z,1.00
2022-12-23T07:29:31.321Z,1.00
2022-12-23T07:30:31.272Z,1.00
2022-12-23T07:31:31.350Z,1.00
2022-12-23T07:32:31.283Z,1.00
2022-12-23T07:33:31.326Z,1.00
2022-12-23T07:34:31.366Z,1.00
2022-12-23T07:35:31.260Z,1.00
2022-12-23T07:36:31.207Z,1.00
2022-12-23T07:37:31.212Z,1.00
2022-12-23T07:38:32.030Z,1.00
2022-12-23T07:39:31.383Z,1.00
2022-12-23T07:40:31.227Z,1.00
2022-12-23T07:41:31.137Z,1.00
2022-12-23T07:42:45.076Z,1.00
2022-12-23T07:43:31.146Z,1.00
2022-12-23T07:44:31.203Z,1.00
2022-12-23T07:45:31.181Z,1.00
2022-12-23T07:46:31.302Z,1.00
2022-12-23T07:47:31.118Z,1.00
2022-12-23T07:48:31.083Z,1.00
2022-12-23T07:49:31.085Z,1.00
2022-12-23T07:50:31.110Z,0.00
2022-12-23T07:51:31.140Z,0.00
2022-12-23T07:52:31.159Z,0.00
2022-12-23T07:53:31.194Z,0.00
2022-12-23T07:54:31.139Z,0.00
2022-12-23T07:55:31.184Z,0.00
2022-12-23T07:56:31.028Z,0.00
2022-12-23T07:57:31.084Z,0.00
2022-12-23T07:58:31.063Z,0.00
2022-12-23T07:59:30.948Z,1.00
2022-12-23T08:00:31.106Z,0.00
2022-12-23T08:01:31.103Z,1.00
2022-12-23T08:02:31.872Z,1.00
2022-12-23T08:03:31.058Z,0.00
2022-12-23T08:04:31.047Z,0.00
2022-12-23T08:05:31.031Z,0.00
2022-12-23T08:06:30.907Z,2.00
2022-12-23T08:07:30.928Z,1.00
2022-12-23T08:08:30.903Z,1.00
2022-12-23T08:09:30.810Z,1.00
2022-12-23T08:10:30.918Z,0.00
2022-12-23T08:11:30.924Z,0.00
2022-12-23T08:12:30.892Z,2.00
2022-12-23T08:13:30.855Z,1.00
2022-12-23T08:14:30.843Z,1.00
2022-12-23T08:15:30.830Z,1.00
2022-12-23T08:16:30.787Z,5.00
2022-12-23T08:17:30.762Z,4.00
2022-12-23T08:18:30.938Z,4.00
2022-12-23T08:19:30.800Z,3.00
2022-12-23T08:20:30.791Z,4.00
2022-12-23T08:21:30.754Z,1.00
2022-12-23T08:22:30.716Z,2.00
2022-12-23T08:23:30.702Z,3.00
2022-12-23T08:24:30.707Z,2.00
2022-12-23T08:25:30.799Z,6.00
2022-12-23T08:26:30.710Z,6.00
2022-12-23T08:27:30.726Z,7.00
2022-12-23T08:28:30.620Z,7.00
2022-12-23T08:29:36.085Z,8.00
2022-12-23T08:30:30.681Z,8.00
2022-12-23T08:31:30.703Z,9.00
2022-12-23T08:32:30.649Z,9.00
2022-12-23T08:33:30.824Z,11.00
2022-12-23T08:34:30.556Z,11.00
2022-12-23T08:35:30.637Z,14.00
2022-12-23T08:36:30.581Z,10.00
2022-12-23T08:37:31.408Z,8.00
2022-12-23T08:38:30.592Z,10.00
2022-12-23T08:39:30.567Z,12.00
2022-12-23T08:40:30.503Z,15.00
2022-12-23T08:41:30.624Z,18.00
2022-12-23T08:42:30.510Z,18.00
2022-12-23T08:43:35.778Z,17.00
2022-12-23T08:44:30.486Z,17.00
2022-12-23T08:45:30.844Z,21.00
2022-12-23T08:46:30.535Z,18.00
2022-12-23T08:47:30.561Z,17.00
2022-12-23T08:48:30.517Z,17.00
2022-12-23T08:49:30.424Z,19.00
2022-12-23T08:50:30.546Z,18.00
2022-12-23T08:51:30.469Z,20.00
2022-12-23T08:52:30.541Z,22.00
2022-12-23T08:53:30.398Z,24.00
2022-12-23T08:54:30.486Z,24.00
2022-12-23T08:55:30.390Z,23.00
2022-12-23T08:56:30.415Z,18.00
2022-12-23T08:57:30.354Z,22.00
2022-12-23T08:58:30.406Z,24.00
2022-12-23T08:59:30.339Z,22.00
2022-12-23T09:00:30.319Z,24.00
2022-12-23T09:01:30.495Z,25.00
2022-12-23T09:02:30.516Z,22.00
2022-12-23T09:03:30.411Z,25.00
2022-12-23T09:04:30.272Z,31.00
2022-12-23T09:05:30.391Z,33.00
2022-12-23T09:06:30.667Z,29.00
2022-12-23T09:07:30.240Z,32.00
2022-12-23T09:08:30.246Z,31.00
2022-12-23T09:09:30.311Z,32.00
2022-12-23T09:10:30.232Z,29.00
2022-12-23T09:11:30.176Z,29.00
2022-12-23T09:12:30.179Z,30.00
2022-12-23T09:13:35.110Z,32.00
2022-12-23T09:14:30.142Z,31.00
2022-12-23T09:15:30.172Z,32.00
2022-12-23T09:16:30.199Z,31.00
2022-12-23T09:17:30.127Z,31.00
2022-12-23T09:18:30.195Z,30.00
2022-12-23T09:19:30.163Z,30.00
2022-12-23T09:20:30.193Z,28.00
2022-12-23T09:21:30.181Z,30.00
2022-12-23T09:22:30.063Z,33.00
2022-12-23T09:23:30.167Z,39.00
2022-12-23T09:24:30.073Z,54.00
2022-12-23T09:25:30.295Z,45.00
2022-12-23T09:26:30.031Z,40.00
2022-12-23T09:27:30.043Z,50.00
2022-12-23T09:28:30.021Z,54.00
2022-12-23T09:29:30.001Z,54.00
2022-12-23T09:30:30.034Z,66.00
2022-12-23T09:31:36.167Z,65.00
2022-12-23T09:32:30.052Z,77.00
2022-12-23T09:33:30.375Z,77.00
2022-12-23T09:34:29.932Z,85.00
2022-12-23T09:35:29.987Z,85.00
2022-12-23T09:36:29.985Z,101.00
2022-12-23T09:37:29.992Z,96.00
2022-12-23T09:38:29.940Z,94.00
2022-12-23T09:39:30.930Z,103.00
2022-12-23T09:40:29.918Z,98.00
2022-12-23T09:41:29.943Z,105.00
2022-12-23T09:42:29.924Z,103.00
2022-12-23T09:43:29.957Z,99.00
2022-12-23T09:44:29.945Z,107.00
2022-12-23T09:45:32.990Z,110.00
2022-12-23T09:46:29.943Z,108.00
2022-12-23T09:47:29.850Z,119.00
2022-12-23T09:48:29.865Z,123.00
2022-12-23T09:49:29.886Z,97.00
2022-12-23T09:50:29.857Z,105.00
2022-12-23T09:51:29.859Z,110.00
2022-12-23T09:52:29.783Z,113.00
2022-12-23T09:53:29.797Z,120.00
2022-12-23T09:54:29.726Z,106.00
2022-12-23T09:55:29.806Z,138.00
2022-12-23T09:56:29.795Z,128.00
2022-12-23T09:57:29.716Z,133.00
2022-12-23T09:58:29.816Z,147.00
2022-12-23T09:59:29.721Z,94.00
2022-12-23T10:00:29.717Z,120.00
2022-12-23T10:01:29.882Z,121.00
2022-12-23T10:02:29.901Z,153.00
2022-12-23T10:03:29.899Z,123.00
2022-12-23T10:04:29.874Z,147.00
2022-12-23T10:05:29.653Z,154.00
2022-12-23T10:06:29.602Z,144.00
2022-12-23T10:07:29.607Z,157.00
2022-12-23T10:08:29.579Z,152.00
2022-12-23T10:09:29.572Z,153.00
2022-12-23T10:10:29.597Z,152.00
2022-12-23T10:11:29.609Z,151.00
2022-12-23T10:12:32.870Z,158.00
2022-12-23T10:13:29.616Z,169.00
2022-12-23T10:14:29.534Z,163.00
2022-12-23T10:15:29.463Z,213.00
2022-12-23T10:16:29.573Z,112.00
2022-12-23T10:17:29.483Z,174.00
2022-12-23T10:18:29.478Z,163.00
2022-12-23T10:19:29.488Z,189.00
2022-12-23T10:20:29.456Z,154.00
2022-12-23T10:21:29.396Z,166.00
2022-12-23T10:22:29.408Z,159.00
2022-12-23T10:23:29.411Z,197.00
2022-12-23T10:24:29.441Z,175.00
2022-12-23T10:25:29.386Z,184.00
2022-12-23T10:26:29.392Z,172.00
2022-12-23T10:27:29.433Z,185.00
2022-12-23T10:28:29.817Z,171.00
2022-12-23T10:29:29.337Z,195.00
2022-12-23T10:31:40.334Z,175.00
2022-12-23T10:32:29.580Z,193.00
2022-12-23T10:33:29.280Z,215.00
2022-12-23T10:34:34.907Z,183.00
2022-12-23T10:35:29.297Z,214.00
2022-12-23T10:36:30.008Z,205.00
2022-12-23T10:37:29.206Z,234.00
2022-12-23T10:38:29.262Z,182.00
2022-12-23T10:39:29.201Z,270.00
2022-12-23T10:40:29.206Z,224.00
2022-12-23T10:41:29.221Z,245.00
2022-12-23T10:42:29.239Z,222.00
2022-12-23T10:43:29.316Z,228.00
2022-12-23T10:44:29.137Z,259.00
2022-12-23T10:45:29.143Z,240.00
2022-12-23T10:46:29.251Z,278.00
2022-12-23T10:47:29.151Z,290.00
2022-12-23T10:48:29.178Z,274.00
2022-12-23T10:49:29.165Z,268.00
2022-12-23T10:50:29.144Z,283.00
2022-12-23T10:51:29.168Z,274.00
2022-12-23T10:52:29.152Z,280.00
2022-12-23T10:53:29.113Z,302.00
2022-12-23T10:54:29.116Z,285.00
2022-12-23T10:55:33.405Z,292.00
2022-12-23T10:56:29.078Z,322.00
2022-12-23T10:57:29.030Z,304.00
2022-12-23T10:58:29.153Z,324.00
2022-12-23T10:59:29.218Z,327.00
2022-12-23T11:00:29.185Z,347.00
2022-12-23T11:01:29.109Z,342.00
2022-12-23T11:02:29.219Z,348.00
2022-12-23T11:03:29.268Z,362.00
2022-12-23T11:04:28.963Z,384.00
2022-12-23T11:06:05.331Z,350.00
2022-12-23T11:06:33.246Z,376.00
2022-12-23T11:07:45.802Z,376.00
2022-12-23T11:08:28.893Z,390.00
2022-12-23T11:09:28.904Z,383.00
2022-12-23T11:10:28.996Z,403.00
2022-12-23T11:11:29.425Z,397.00
2022-12-23T11:12:28.897Z,410.00
2022-12-23T11:13:28.832Z,402.00
2022-12-23T11:14:28.833Z,411.00
2022-12-23T11:15:28.839Z,409.00
2022-12-23T11:16:28.940Z,408.00
2022-12-23T11:17:28.939Z,411.00
2022-12-23T11:18:28.759Z,441.00
2022-12-23T11:19:28.760Z,431.00
2022-12-23T11:20:28.773Z,437.00
2022-12-23T11:21:28.770Z,437.00
2022-12-23T11:22:28.866Z,435.00
2022-12-23T11:23:28.866Z,447.00
2022-12-23T11:24:28.699Z,447.00
2022-12-23T11:25:28.774Z,454.00
2022-12-23T11:26:28.712Z,458.00
2022-12-23T11:27:28.723Z,448.00
2022-12-23T11:28:28.725Z,461.00
2022-12-23T11:29:28.792Z,475.00
2022-12-23T11:30:28.631Z,459.00
2022-12-23T11:31:28.776Z,484.00
2022-12-23T11:32:28.756Z,487.00
2022-12-23T11:33:28.705Z,481.00
2022-12-23T11:34:28.664Z,487.00
2022-12-23T11:35:28.821Z,490.00
2022-12-23T11:36:28.632Z,492.00
2022-12-23T11:37:28.648Z,498.00
2022-12-23T11:38:28.657Z,512.00
2022-12-23T11:39:28.593Z,508.00
2022-12-23T11:40:28.664Z,513.00
2022-12-23T11:41:28.705Z,516.00
2022-12-23T11:42:28.577Z,505.00
2022-12-23T11:43:28.527Z,527.00
2022-12-23T11:44:28.520Z,522.00
2022-12-23T11:45:28.631Z,523.00
2022-12-23T11:46:28.576Z,539.00
2022-12-23T11:47:28.647Z,533.00
2022-12-23T11:48:28.454Z,543.00
2022-12-23T11:49:28.456Z,550.00
2022-12-23T11:50:28.539Z,484.00
2022-12-23T11:51:28.528Z,605.00
2022-12-23T11:52:28.475Z,564.00
2022-12-23T11:53:28.458Z,566.00
2022-12-23T11:54:28.454Z,566.00
2022-12-23T11:55:28.393Z,568.00
2022-12-23T11:56:28.512Z,574.00
2022-12-23T11:57:28.405Z,577.00
2022-12-23T11:58:28.476Z,594.00
2022-12-23T11:59:28.375Z,595.00
2022-12-23T12:00:28.398Z,580.00
2022-12-23T12:01:28.325Z,603.00
2022-12-23T12:02:28.497Z,601.00
2022-12-23T12:03:28.513Z,599.00
2022-12-23T12:04:28.350Z,608.00
2022-12-23T12:05:28.338Z,610.00
2022-12-23T12:06:28.355Z,619.00
2022-12-23T12:07:28.335Z,609.00
2022-12-23T12:08:28.344Z,624.00
2022-12-23T12:09:28.362Z,621.00
2022-12-23T12:10:28.308Z,620.00
2022-12-23T12:11:28.354Z,672.00
2022-12-23T12:12:28.259Z,479.00
2022-12-23T12:13:28.291Z,648.00
2022-12-23T12:14:28.213Z,633.00
2022-12-23T12:15:28.497Z,652.00
2022-12-23T12:16:28.383Z,652.00
2022-12-23T12:17:28.190Z,642.00
2022-12-23T12:18:28.136Z,647.00
2022-12-23T12:19:28.142Z,648.00
2022-12-23T12:20:28.215Z,655.00
2022-12-23T12:21:28.530Z,659.00
2022-12-23T12:22:28.227Z,652.00
2022-12-23T12:23:28.154Z,674.00
2022-12-23T12:24:28.163Z,664.00
2022-12-23T12:25:28.157Z,654.00
2022-12-23T12:26:28.131Z,671.00
2022-12-23T12:27:28.245Z,680.00
2022-12-23T12:28:28.165Z,671.00
2022-12-23T12:29:28.078Z,669.00
2022-12-23T12:30:28.093Z,680.00
2022-12-23T12:31:28.127Z,692.00
2022-12-23T12:32:28.108Z,669.00
2022-12-23T12:33:28.480Z,688.00
2022-12-23T12:34:28.079Z,693.00
2022-12-23T12:35:28.121Z,691.00
2022-12-23T12:36:28.105Z,688.00
2022-12-23T12:37:27.996Z,705.00
2022-12-23T12:38:28.005Z,698.00
2022-12-23T12:39:28.025Z,697.00
2022-12-23T12:40:28.059Z,703.00
2022-12-23T12:41:28.023Z,704.00
2022-12-23T12:42:27.905Z,705.00
2022-12-23T12:43:27.963Z,701.00
2022-12-23T12:44:27.878Z,713.00
2022-12-23T12:45:28.121Z,710.00
2022-12-23T12:46:27.929Z,699.00
2022-12-23T12:47:52.516Z,721.00
2022-12-23T12:48:27.899Z,726.00
2022-12-23T12:49:27.871Z,722.00
2022-12-23T12:50:27.943Z,718.00
2022-12-23T12:51:27.883Z,715.00
2022-12-23T12:52:27.832Z,730.00
2022-12-23T12:53:27.834Z,715.00
2022-12-23T12:54:27.803Z,722.00
2022-12-23T12:55:27.749Z,723.00
2022-12-23T12:56:27.757Z,725.00
2022-12-23T12:57:27.856Z,731.00
2022-12-23T12:58:27.725Z,734.00
2022-12-23T12:59:27.884Z,732.00
2022-12-23T13:00:27.845Z,736.00
2022-12-23T13:01:27.809Z,740.00
2022-12-23T13:02:27.857Z,734.00
2022-12-23T13:03:27.706Z,743.00